createdAt,value
2017-05-02T00:02:27.487Z,6.85
2017-05-02T00:05:02.704Z,6.32
2017-05-02T00:07:38.661Z,6.17
2017-05-02T00:13:18.947Z,7.37
2017-05-02T00:15:54.693Z,7.75
2017-05-02T00:18:29.941Z,6.60
2017-05-02T00:21:05.201Z,7.58
2017-05-02T00:23:40.837Z,6.35
2017-05-02T00:26:16.229Z,6.92
2017-05-02T00:28:51.839Z,7.60
2017-05-02T00:31:27.783Z,6.80
2017-05-02T00:34:03.029Z,7.28
2017-05-02T00:36:38.472Z,7.40
2017-05-02T00:39:13.749Z,7.15
2017-05-02T00:41:49.048Z,7.42
2017-05-02T00:44:24.288Z,8.08
2017-05-02T00:46:59.637Z,8.08
2017-05-02T00:49:35.590Z,8.30
2017-05-02T00:52:10.898Z,7.15
2017-05-02T00:54:46.280Z,7.07
2017-05-02T00:57:21.487Z,8.23
2017-05-02T00:59:56.761Z,7.33
2017-05-02T01:02:31.997Z,7.40
2017-05-02T01:05:07.175Z,7.70
2017-05-02T01:10:48.918Z,6.65
2017-05-02T01:16:28.908Z,7.02
2017-05-02T01:19:04.105Z,6.83
2017-05-02T01:25:01.845Z,8.05
2017-05-02T01:30:41.793Z,7.63
2017-05-02T01:33:16.819Z,7.63
2017-05-02T01:35:52.136Z,7.67
2017-05-02T01:38:27.405Z,8.68
2017-05-02T01:41:02.703Z,6.63
2017-05-02T01:43:37.965Z,7.78
2017-05-02T01:46:13.533Z,7.25
2017-05-02T01:48:48.798Z,9.03
2017-05-02T01:51:23.952Z,7.42
2017-05-02T01:53:59.272Z,8.25
2017-05-02T01:56:34.462Z,8.85
2017-05-02T01:59:09.774Z,7.58
2017-05-02T02:01:45.021Z,7.42
2017-05-02T02:04:20.289Z,6.83
2017-05-02T02:06:55.745Z,7.28
2017-05-02T02:09:30.986Z,7.37
2017-05-02T02:12:06.490Z,6.77
2017-05-02T02:14:41.733Z,8.38
2017-05-02T02:17:17.058Z,8.60
2017-05-02T02:19:52.364Z,7.80
2017-05-02T02:22:27.661Z,9.00
2017-05-02T02:25:03.029Z,8.20
2017-05-02T02:27:39.187Z,7.53
2017-05-02T02:30:14.543Z,9.38
2017-05-02T02:32:50.676Z,7.88
2017-05-02T02:35:26.851Z,8.28
2017-05-02T02:38:02.105Z,6.37
2017-05-02T02:40:37.929Z,8.73
2017-05-02T02:43:13.001Z,8.40
2017-05-02T02:45:48.282Z,8.58
2017-05-02T02:48:24.233Z,7.68
2017-05-02T02:51:00.116Z,8.93
2017-05-02T02:53:35.386Z,7.95
2017-05-02T02:56:11.437Z,8.95
2017-05-02T02:58:46.634Z,7.47
2017-05-02T03:01:22.618Z,9.15
2017-05-02T03:03:57.837Z,8.65
2017-05-02T03:06:33.167Z,8.33
2017-05-02T03:09:08.356Z,8.80
2017-05-02T03:11:43.755Z,8.97
2017-05-02T03:14:19.005Z,8.65
2017-05-02T03:16:54.277Z,9.03
2017-05-02T03:19:29.636Z,8.58
2017-05-02T03:22:04.785Z,8.48
2017-05-02T03:24:40.768Z,8.37
2017-05-02T03:27:16.042Z,8.22
2017-05-02T03:29:51.667Z,10.33
2017-05-02T03:32:27.690Z,9.92
2017-05-02T03:35:02.980Z,10.07
2017-05-02T03:37:38.886Z,10.12
2017-05-02T03:40:14.230Z,9.35
2017-05-02T03:42:49.606Z,9.15
2017-05-02T03:45:24.838Z,10.75
2017-05-02T03:48:00.092Z,9.73
2017-05-02T03:50:35.354Z,9.38
2017-05-02T03:53:10.573Z,10.12
2017-05-02T03:55:46.205Z,11.30
2017-05-02T03:58:21.679Z,9.53
2017-05-02T04:00:57.013Z,9.65
2017-05-02T04:03:32.282Z,8.88
2017-05-02T04:06:07.673Z,10.48
2017-05-02T04:08:43.005Z,10.27
2017-05-02T04:11:18.614Z,9.25
2017-05-02T04:13:53.695Z,9.23
2017-05-02T04:16:29.334Z,7.85
2017-05-02T04:19:04.525Z,10.03
2017-05-02T04:21:39.889Z,10.60
2017-05-02T04:24:15.882Z,8.65
2017-05-02T04:26:51.193Z,8.43
2017-05-02T04:29:27.179Z,9.67
2017-05-02T04:32:02.387Z,10.95
2017-05-02T04:34:38.417Z,10.70
2017-05-02T04:37:13.673Z,9.90
2017-05-02T04:39:48.829Z,9.80
2017-05-02T04:42:24.940Z,9.98
2017-05-02T04:45:00.312Z,9.02
2017-05-02T04:47:35.554Z,9.75
2017-05-02T04:50:10.842Z,9.22
2017-05-02T04:52:46.121Z,10.47
2017-05-02T04:55:21.329Z,8.02
2017-05-02T04:57:56.838Z,9.83
2017-05-02T05:00:32.048Z,8.63
2017-05-02T05:03:07.277Z,7.88
2017-05-02T05:05:42.531Z,7.92
2017-05-02T05:08:17.844Z,8.23
2017-05-02T05:10:53.050Z,9.20
2017-05-02T05:13:28.375Z,7.37
2017-05-02T05:16:03.541Z,8.53
2017-05-02T05:18:38.883Z,8.32
2017-05-02T05:21:14.074Z,9.50
2017-05-02T05:23:49.252Z,6.82
2017-05-02T05:26:24.965Z,8.13
2017-05-02T05:29:01.124Z,6.72
2017-05-02T05:31:37.184Z,8.23
2017-05-02T05:34:12.473Z,7.38
2017-05-02T05:36:47.823Z,4.52
2017-05-02T05:39:23.042Z,8.02
2017-05-02T05:41:58.558Z,8.40
2017-05-02T05:44:33.796Z,5.97
2017-05-02T05:47:09.141Z,6.77
2017-05-02T05:49:45.059Z,7.35
2017-05-02T05:52:20.369Z,7.32
2017-05-02T05:54:56.387Z,6.92
2017-05-02T05:57:31.705Z,7.22
2017-05-02T06:00:06.881Z,7.42
2017-05-02T06:02:42.172Z,6.93
2017-05-02T06:05:17.354Z,6.25
2017-05-02T06:07:52.606Z,7.00
2017-05-02T06:10:27.888Z,6.33
2017-05-02T06:13:03.189Z,7.37
2017-05-02T06:15:38.819Z,7.67
2017-05-02T06:18:14.026Z,7.02
2017-05-02T06:20:49.525Z,6.32
2017-05-02T06:23:24.759Z,8.03
2017-05-02T06:26:00.825Z,7.90
2017-05-02T06:28:36.810Z,5.78
2017-05-02T06:31:12.177Z,6.98
2017-05-02T06:33:47.429Z,7.95
2017-05-02T06:36:23.474Z,7.67
2017-05-02T06:38:58.794Z,7.27
2017-05-02T06:41:34.117Z,6.85
2017-05-02T06:44:10.126Z,4.82
2017-05-02T06:46:45.352Z,7.52
2017-05-02T06:49:20.662Z,6.65
2017-05-02T06:51:55.848Z,6.07
2017-05-02T06:54:31.255Z,7.02
2017-05-02T06:57:06.466Z,7.58
2017-05-02T06:59:41.820Z,6.38
2017-05-02T07:02:16.993Z,6.63
2017-05-02T07:04:53.116Z,6.65
2017-05-02T07:07:28.315Z,6.55
2017-05-02T07:10:03.669Z,6.88
2017-05-02T07:12:39.655Z,6.02
2017-05-02T07:15:15.623Z,5.08
2017-05-02T07:17:51.073Z,6.30
2017-05-02T07:20:26.113Z,5.53
2017-05-02T07:23:01.696Z,7.08
2017-05-02T07:25:37.785Z,7.05
2017-05-02T07:28:13.119Z,6.33
2017-05-02T07:30:49.076Z,7.40
2017-05-02T07:33:24.324Z,6.45
2017-05-02T07:35:59.847Z,7.20
2017-05-02T07:38:35.079Z,7.07
2017-05-02T07:41:10.401Z,7.10
2017-05-02T07:43:45.676Z,5.80
2017-05-02T07:46:20.864Z,6.32
2017-05-02T07:48:55.967Z,5.48
2017-05-02T07:51:31.957Z,6.58
2017-05-02T07:54:07.878Z,7.73
2017-05-02T07:56:43.154Z,6.47
2017-05-02T07:59:18.335Z,6.73
2017-05-02T08:01:53.619Z,6.23
2017-05-02T08:04:29.178Z,6.72
2017-05-02T08:07:04.313Z,6.58
2017-05-02T08:09:39.486Z,5.75
2017-05-02T08:12:14.874Z,5.48
2017-05-02T08:14:50.113Z,6.15
2017-05-02T08:17:25.352Z,6.67
2017-05-02T08:20:00.725Z,7.52
2017-05-02T08:22:36.043Z,6.18
2017-05-02T08:25:11.281Z,6.70
2017-05-02T08:27:47.198Z,7.53
2017-05-02T08:30:22.481Z,6.42
2017-05-02T08:32:57.741Z,5.82
2017-05-02T08:35:33.035Z,6.40
2017-05-02T08:38:08.198Z,5.87
2017-05-02T08:40:43.731Z,6.38
2017-05-02T08:43:18.883Z,7.87
2017-05-02T08:45:54.929Z,6.42
2017-05-02T08:48:30.885Z,4.40
2017-05-02T08:51:06.114Z,5.98
2017-05-02T08:53:41.243Z,6.87
2017-05-02T08:56:16.460Z,6.05
2017-05-02T08:58:51.497Z,6.62
2017-05-02T09:01:26.771Z,7.53
2017-05-02T09:04:01.933Z,6.23
2017-05-02T09:06:37.978Z,7.38
2017-05-02T09:09:13.002Z,6.90
2017-05-02T09:11:48.556Z,6.73
2017-05-02T09:14:24.485Z,7.52
2017-05-02T09:16:59.718Z,5.90
2017-05-02T09:19:35.177Z,6.82
2017-05-02T09:22:10.318Z,5.65
2017-05-02T09:24:45.641Z,7.18
2017-05-02T09:27:20.815Z,7.97
2017-05-02T09:29:56.529Z,7.13
2017-05-02T09:32:31.673Z,6.18
2017-05-02T09:35:07.929Z,6.25
2017-05-02T09:37:43.077Z,6.93
2017-05-02T09:40:18.421Z,7.48
2017-05-02T09:42:53.681Z,7.57
2017-05-02T09:45:29.731Z,5.70
2017-05-02T09:48:04.965Z,7.00
2017-05-02T09:50:40.936Z,5.43
2017-05-02T09:53:16.295Z,6.00
2017-05-02T09:55:51.781Z,6.87
2017-05-02T09:58:27.138Z,8.82
2017-05-02T10:01:02.505Z,7.72
2017-05-02T10:03:38.488Z,7.70
2017-05-02T10:06:13.769Z,7.40
2017-05-02T10:08:48.894Z,7.48
2017-05-02T10:11:24.346Z,5.68
2017-05-02T10:14:00.403Z,8.35
2017-05-02T10:16:35.693Z,5.55
2017-05-02T10:19:11.038Z,5.23
2017-05-02T10:21:47.034Z,5.67
2017-05-02T10:24:22.974Z,6.85
2017-05-02T10:26:58.317Z,5.88
2017-05-02T10:29:33.582Z,5.22
2017-05-02T10:32:09.521Z,6.03
2017-05-02T10:34:44.877Z,6.48
2017-05-02T10:37:20.121Z,5.95
2017-05-02T10:39:55.277Z,5.80
2017-05-02T10:42:30.828Z,6.30
2017-05-02T10:45:06.150Z,4.32
2017-05-02T10:47:41.425Z,5.07
2017-05-02T10:50:16.605Z,5.20
2017-05-02T10:52:52.118Z,4.48
2017-05-02T10:55:27.498Z,4.40
2017-05-02T10:58:02.833Z,7.58
2017-05-02T11:00:38.045Z,7.50
2017-05-02T11:03:13.364Z,5.83
2017-05-02T11:05:49.333Z,4.83
2017-05-02T11:08:24.617Z,5.38
2017-05-02T11:10:59.861Z,5.02
2017-05-02T11:13:35.069Z,5.67
2017-05-02T11:16:10.240Z,4.78
2017-05-02T11:18:45.556Z,6.47
2017-05-02T11:21:20.781Z,4.18
2017-05-02T11:23:56.098Z,5.58
2017-05-02T11:26:31.373Z,5.78
2017-05-02T11:29:06.633Z,5.30
2017-05-02T11:31:41.985Z,5.17
2017-05-02T11:34:17.410Z,7.17
2017-05-02T11:36:52.676Z,4.78
2017-05-02T11:39:27.868Z,6.50
2017-05-02T11:42:03.081Z,5.05
2017-05-02T11:44:38.570Z,6.72
2017-05-02T11:47:13.802Z,5.10
2017-05-02T11:49:50.108Z,4.58
2017-05-02T11:52:25.307Z,5.57
2017-05-02T11:55:01.270Z,5.32
2017-05-02T11:57:36.557Z,5.53
2017-05-02T12:00:11.858Z,7.55
2017-05-02T12:02:47.063Z,7.07
2017-05-02T12:05:22.329Z,4.97
2017-05-02T12:07:58.249Z,6.90
2017-05-02T12:10:33.581Z,5.22
2017-05-02T12:13:08.777Z,5.43
2017-05-02T12:15:44.062Z,6.57
2017-05-02T12:18:19.309Z,5.90
2017-05-02T12:20:54.589Z,6.35
2017-05-02T12:23:30.510Z,5.58
2017-05-02T12:26:05.837Z,6.83
2017-05-02T12:28:40.981Z,4.80
2017-05-02T12:31:16.406Z,6.13
2017-05-02T12:33:52.191Z,6.58
2017-05-02T12:36:27.397Z,6.62
2017-05-02T12:39:02.746Z,4.18
2017-05-02T12:41:38.313Z,6.18
2017-05-02T12:44:13.509Z,6.90
2017-05-02T12:46:48.729Z,7.15
2017-05-02T12:49:23.926Z,8.03
2017-05-02T12:51:59.312Z,5.93
2017-05-02T12:57:10.569Z,6.15
2017-05-02T12:59:45.781Z,6.32
2017-05-02T13:02:21.253Z,4.85
2017-05-02T13:04:56.522Z,7.03
2017-05-02T13:07:32.854Z,5.25
2017-05-02T13:10:10.909Z,5.00
2017-05-02T13:12:46.155Z,6.55
2017-05-02T13:15:21.458Z,4.73
2017-05-02T13:17:57.583Z,5.87
2017-05-02T13:20:33.406Z,5.48
2017-05-02T13:23:09.102Z,5.13
2017-05-02T13:31:54.192Z,5.20
2017-05-02T13:34:29.374Z,5.95
2017-05-02T13:37:04.622Z,5.95
2017-05-02T13:39:40.691Z,5.33
2017-05-02T13:45:16.519Z,4.80
2017-05-02T13:47:52.942Z,5.23
2017-05-02T13:50:29.224Z,4.88
2017-05-02T13:53:05.375Z,5.38
2017-05-02T13:55:53.222Z,4.38
2017-05-02T13:58:28.466Z,4.52
2017-05-02T14:01:03.801Z,5.22
2017-05-02T14:03:39.104Z,4.47
2017-05-02T14:06:14.336Z,4.77
2017-05-02T14:08:50.299Z,4.37
2017-05-02T14:11:27.879Z,4.92
2017-05-02T14:14:02.953Z,4.55
2017-05-02T14:16:38.497Z,4.72
2017-05-02T14:19:14.531Z,4.12
2017-05-02T14:21:49.749Z,5.42
2017-05-02T14:24:24.948Z,5.55
2017-05-02T14:33:09.219Z,4.73
2017-05-02T14:35:45.323Z,4.85
2017-05-02T14:41:26.795Z,4.82
2017-05-02T14:44:01.928Z,5.53
2017-05-02T14:46:37.895Z,5.87
2017-05-02T14:49:13.813Z,5.45
2017-05-02T14:51:49.905Z,5.37
2017-05-02T14:54:25.824Z,5.18
2017-05-02T14:57:04.771Z,4.52
2017-05-02T15:05:56.104Z,4.83
2017-05-02T15:08:32.529Z,6.18
2017-05-02T15:14:12.421Z,4.35
2017-05-02T15:16:47.628Z,4.70
2017-05-02T15:19:23.151Z,5.50
2017-05-02T15:21:59.256Z,3.83
2017-05-02T15:27:48.389Z,6.02
2017-05-02T15:30:23.828Z,4.83
2017-05-02T15:32:59.685Z,5.28
2017-05-02T15:35:34.925Z,4.30
2017-05-02T15:38:10.242Z,5.78
2017-05-02T15:40:45.752Z,5.25
2017-05-02T15:52:35.371Z,6.77
2017-05-02T16:04:25.468Z,6.10
2017-05-02T16:07:00.565Z,5.58
2017-05-02T16:09:35.929Z,4.83
2017-05-02T16:12:10.977Z,5.65
2017-05-02T16:14:46.310Z,6.97
2017-05-02T16:17:21.466Z,5.43
2017-05-02T16:19:56.653Z,4.98
2017-05-02T16:22:31.816Z,5.40
2017-05-02T16:25:07.337Z,5.58
2017-05-02T16:27:42.425Z,4.53
2017-05-02T16:30:17.533Z,4.73
2017-05-02T16:32:52.781Z,4.90
2017-05-02T16:35:28.749Z,4.57
2017-05-02T16:38:04.067Z,4.87
2017-05-02T16:40:40.045Z,5.22
2017-05-02T16:43:16.069Z,5.33
2017-05-02T16:45:51.703Z,4.70
2017-05-02T16:48:26.971Z,5.05
2017-05-02T16:51:02.216Z,4.75
2017-05-02T16:53:37.533Z,4.67
2017-05-02T16:56:12.817Z,6.72
2017-05-02T16:58:48.055Z,3.77
2017-05-02T17:01:23.643Z,5.40
2017-05-02T17:04:16.736Z,3.93
2017-05-02T17:06:51.877Z,6.23
2017-05-02T17:09:27.757Z,4.00
2017-05-02T17:12:02.895Z,6.40
2017-05-02T17:14:38.202Z,5.45
2017-05-02T17:20:19.395Z,4.40
2017-05-02T17:22:54.568Z,3.43
2017-05-02T17:25:29.840Z,4.42
2017-05-02T17:28:06.831Z,4.52
2017-05-02T17:30:41.932Z,5.18
2017-05-02T17:33:17.110Z,4.47
2017-05-02T17:35:53.483Z,7.47
2017-05-02T17:38:28.788Z,6.53
2017-05-02T17:41:03.851Z,5.03
2017-05-02T17:43:39.038Z,4.58
2017-05-02T17:46:14.309Z,7.23
2017-05-02T17:48:51.709Z,6.13
2017-05-02T17:51:27.036Z,7.30
2017-05-02T17:54:04.739Z,4.83
2017-05-02T17:56:44.001Z,6.13
2017-05-02T17:59:19.295Z,7.88
2017-05-02T18:01:54.518Z,6.58
2017-05-02T18:04:30.639Z,7.12
2017-05-02T18:07:05.894Z,6.92
2017-05-02T18:09:41.237Z,6.98
2017-05-02T18:12:16.468Z,8.28
2017-05-02T18:14:51.734Z,7.80
2017-05-02T18:17:27.647Z,6.37
2017-05-02T18:20:03.090Z,6.93
2017-05-02T18:22:38.434Z,6.45
2017-05-02T18:25:13.814Z,5.57
2017-05-02T18:27:49.151Z,6.47
2017-05-02T18:30:24.517Z,6.50
2017-05-02T18:32:59.690Z,7.27
2017-05-02T18:35:34.834Z,7.77
2017-05-02T18:38:10.060Z,7.43
2017-05-02T18:40:45.160Z,7.93
2017-05-02T18:43:20.521Z,7.53
2017-05-02T18:45:56.004Z,6.63
2017-05-02T18:48:31.468Z,7.07
2017-05-02T18:51:06.827Z,6.08
2017-05-02T18:53:42.160Z,6.37
2017-05-02T18:56:17.563Z,8.47
2017-05-02T18:58:52.776Z,8.52
2017-05-02T19:01:28.105Z,7.47
2017-05-02T19:04:05.862Z,8.23
2017-05-02T19:06:42.043Z,9.70
2017-05-02T19:09:18.041Z,8.15
2017-05-02T19:11:53.543Z,7.90
2017-05-02T19:14:31.410Z,7.42
2017-05-02T19:17:07.536Z,6.92
2017-05-02T19:19:42.899Z,7.88
2017-05-02T19:22:18.514Z,7.73
2017-05-02T19:24:55.332Z,7.85
2017-05-02T19:27:30.623Z,8.15
2017-05-02T19:30:11.849Z,6.27
2017-05-02T19:32:47.031Z,7.12
2017-05-02T19:35:22.520Z,7.38
2017-05-02T19:37:59.624Z,7.38
2017-05-02T19:40:34.869Z,5.88
2017-05-02T19:43:11.629Z,8.23
2017-05-02T19:45:46.628Z,7.53
2017-05-02T19:48:23.430Z,7.78
2017-05-02T19:50:58.482Z,7.55
2017-05-02T19:53:34.641Z,8.05
2017-05-02T19:56:09.780Z,7.58
2017-05-02T19:58:44.875Z,7.50
2017-05-02T20:01:20.040Z,7.92
2017-05-02T20:03:55.380Z,6.23
2017-05-02T20:06:30.536Z,8.63
2017-05-02T20:09:06.292Z,6.73
2017-05-02T20:11:42.176Z,5.70
2017-05-02T20:14:18.501Z,6.67
2017-05-02T20:16:53.751Z,7.47
2017-05-02T20:19:28.961Z,7.27
2017-05-02T20:22:04.167Z,7.93
2017-05-02T20:24:39.461Z,7.32
2017-05-02T20:27:14.726Z,7.92
2017-05-02T20:29:49.987Z,6.87
2017-05-02T20:32:25.162Z,7.82
2017-05-02T20:35:00.482Z,7.47
2017-05-02T20:37:36.636Z,6.15
2017-05-02T20:40:13.780Z,6.68
2017-05-02T20:42:50.617Z,6.05
2017-05-02T20:45:26.511Z,6.52
2017-05-02T20:48:02.512Z,6.93
2017-05-02T20:50:37.847Z,6.78
2017-05-02T20:53:13.609Z,8.13
2017-05-02T20:55:48.762Z,6.03
2017-05-02T20:58:23.936Z,6.52
2017-05-02T21:00:59.188Z,7.43
2017-05-02T21:03:34.434Z,7.08
2017-05-02T21:06:09.802Z,5.57
2017-05-02T21:08:45.145Z,5.75
2017-05-02T21:11:20.592Z,7.90
2017-05-02T21:13:56.019Z,6.80
2017-05-02T21:16:32.199Z,6.12
2017-05-02T21:19:07.433Z,6.78
2017-05-02T21:21:42.763Z,8.48
2017-05-02T21:24:18.100Z,8.53
2017-05-02T21:26:53.517Z,6.75
2017-05-02T21:29:28.977Z,7.32
2017-05-02T21:32:04.348Z,5.52
2017-05-02T21:34:40.375Z,6.27
2017-05-02T21:37:15.738Z,6.48
2017-05-02T21:39:51.051Z,6.02
2017-05-02T21:42:26.307Z,7.60
2017-05-02T21:45:01.699Z,7.80
2017-05-02T21:47:37.012Z,6.68
2017-05-02T21:50:15.182Z,6.38
2017-05-02T21:52:50.808Z,5.85
2017-05-02T21:55:25.938Z,6.35
2017-05-02T21:58:01.102Z,6.10
2017-05-02T22:00:36.382Z,6.23
2017-05-02T22:03:11.547Z,6.28
2017-05-02T22:05:46.802Z,6.88
2017-05-02T22:08:22.946Z,5.87
2017-05-02T22:10:58.152Z,7.17
2017-05-02T22:13:33.583Z,8.98
2017-05-02T22:16:09.044Z,6.10
2017-05-02T22:18:44.367Z,6.55
2017-05-02T22:21:19.604Z,6.78
2017-05-02T22:23:54.963Z,4.38
2017-05-02T22:26:30.059Z,5.72
2017-05-02T22:29:05.465Z,6.82
2017-05-02T22:31:41.376Z,6.90
2017-05-02T22:34:16.782Z,6.57
2017-05-02T22:36:52.783Z,6.07
2017-05-02T22:39:28.066Z,7.30
2017-05-02T22:42:03.327Z,5.47
2017-05-02T22:44:38.479Z,6.57
2017-05-02T22:47:13.755Z,6.92
2017-05-02T22:49:49.277Z,7.63
2017-05-02T22:52:24.603Z,6.53
2017-05-02T22:54:59.951Z,5.42
2017-05-02T22:57:35.176Z,5.70
2017-05-02T23:00:10.521Z,5.57
2017-05-02T23:02:45.795Z,5.77
2017-05-02T23:05:21.409Z,6.40
2017-05-02T23:07:56.615Z,6.67
2017-05-02T23:10:32.049Z,3.92
2017-05-02T23:13:07.299Z,5.62
2017-05-02T23:15:42.804Z,6.02
2017-05-02T23:18:17.868Z,5.58
2017-05-02T23:20:53.156Z,7.37
2017-05-02T23:23:28.250Z,8.03
2017-05-02T23:26:03.744Z,6.22
2017-05-02T23:28:38.901Z,5.80
2017-05-02T23:31:15.090Z,5.98
2017-05-02T23:33:50.470Z,5.67
2017-05-02T23:36:25.814Z,6.37
2017-05-02T23:39:01.017Z,6.42
2017-05-02T23:41:36.391Z,7.18
2017-05-02T23:44:11.735Z,6.72
2017-05-02T23:46:47.271Z,5.20
2017-05-02T23:49:22.544Z,5.45
2017-05-02T23:51:57.858Z,5.27
2017-05-02T23:54:33.204Z,5.18
2017-05-02T23:57:08.650Z,6.80
2017-05-02T23:59:43.852Z,6.48
